Terminal Aerodrome Forecast
Issued by NWS

Home | Current Version | Previous Version | Text Only | Print | Product List | Glossary On
Versions: 1 2 3 4 5 6 7 8 9 10 11 12 13 14 15 16 17 18 19 20 21 22 23 24 25 26 27 28 29 30 31 32 33 34 35 36
000
FTUS44 KBMX 200934 AAA
TAFTCL
TAF AMD
KTCL 200934Z 2010/2106 33014G24KT P6SM OVC035
      TEMPO 2010/2014 BKN025
     FM201500 33014G24KT P6SM BKN025
     FM201700 33013G22KT P6SM SCT030
     FM202200 33011KT P6SM SKC=

USA.gov is the U.S. government's official web portal to all federal, state and local government web resources and services.